Time;durP1;ratioP1;P1;durP2;ratioP2;P2;SDS_P1;SDS_P2;PMS_P1;PMS_P2;Temp;Humidity;BMP_temperature;BMP_pressure;BME280_temperature;BME280_humidity;BME280_pressure;Samples;Min_cycle;Max_cycle;Signal;HPM_P1;HPM_P2
2022/04/04 00:00:17;;;;;;;;;4.20;4.20;;;;;;;;5215265;28;8797;-64
2022/04/04 00:02:49;;;;;;;;;17.40;16.80;;;;;;;;5235172;28;9629;-64
2022/04/04 00:05:21;;;;;;;;;12.60;12.60;;;;;;;;5236245;28;8790;-64
2022/04/04 00:07:52;;;;;;;;;12.60;12.60;;;;;;;;5252846;28;8774;-64
2022/04/04 00:10:23;;;;;;;;;11.00;11.00;;;;;;;;5270680;28;8790;-64
2022/04/04 00:12:54;;;;;;;;;5.80;5.80;;;;;;;;5252393;28;8778;-64
2022/04/04 00:15:27;;;;;;;;;7.20;7.20;;;;;;;;5235730;28;8922;-64
2022/04/04 00:18:05;;;;;;;;;5.40;5.20;;;;;;;;5236260;28;8779;-65
2022/04/04 00:20:38;;;;;;;;;7.00;7.00;;;;;;;;5269807;28;8797;-65
2022/04/04 00:23:13;;;;;;;;;4.40;4.40;;;;;;;;5235806;28;8783;-64
2022/04/04 00:25:45;;;;;;;;;5.00;5.00;;;;;;;;5270397;28;8864;-64
2022/04/04 00:28:16;;;;;;;;;4.00;4.00;;;;;;;;5252239;28;8774;-64
2022/04/04 00:30:48;;;;;;;;;5.00;4.20;;;;;;;;5267919;28;8806;-64
2022/04/04 00:33:19;;;;;;;;;4.00;4.00;;;;;;;;5270280;28;8867;-64
2022/04/04 00:35:50;;;;;;;;;2.00;2.00;;;;;;;;5252280;28;8770;-63
2022/04/04 00:38:40;;;;;;;;;6.40;6.40;;;;;;;;5252259;28;8766;-65
2022/04/04 00:41:13;;;;;;;;;15.00;15.00;;;;;;;;5231483;28;8800;-64
2022/04/04 00:43:50;;;;;;;;;65.20;54.80;;;;;;;;5231282;28;8813;-65
2022/04/04 00:46:21;;;;;;;;;16.80;14.80;;;;;;;;5231826;28;9523;-64
2022/04/04 00:49:12;;;;;;;;;16.00;15.20;;;;;;;;5231642;28;9605;-66
2022/04/04 00:51:44;;;;;;;;;9.00;8.00;;;;;;;;5231044;28;8877;-65
2022/04/04 00:54:34;;;;;;;;;30.40;28.40;;;;;;;;5215670;28;8849;-65
2022/04/04 00:57:05;;;;;;;;;30.40;28.20;;;;;;;;5244055;28;8777;-64
2022/04/04 00:59:36;;;;;;;;;11.00;11.00;;;;;;;;5259249;28;8933;-65
2022/04/04 01:02:07;;;;;;;;;4.40;4.40;;;;;;;;5231493;28;8787;-65
2022/04/04 01:04:39;;;;;;;;;20.60;19.80;;;;;;;;5230712;28;8786;-65
2022/04/04 01:07:10;;;;;;;;;61.80;53.00;;;;;;;;5230281;28;8763;-65
2022/04/04 01:09:41;;;;;;;;;8.80;8.80;;;;;;;;5247253;28;8814;-65
2022/04/04 01:12:13;;;;;;;;;2.80;2.80;;;;;;;;5230364;28;8826;-65
2022/04/04 01:14:47;;;;;;;;;6.20;6.20;;;;;;;;5248486;28;8802;-66
2022/04/04 01:17:37;;;;;;;;;7.00;7.00;;;;;;;;5233236;28;8799;-66
2022/04/04 01:20:09;;;;;;;;;45.40;43.20;;;;;;;;5230579;28;8803;-65
2022/04/04 01:22:47;;;;;;;;;21.60;20.40;;;;;;;;5247419;28;8787;-64
2022/04/04 01:25:37;;;;;;;;;8.00;8.00;;;;;;;;5230689;28;8807;-65
2022/04/04 01:28:09;;;;;;;;;7.00;7.00;;;;;;;;5246718;28;8779;-65
2022/04/04 01:30:40;;;;;;;;;4.80;4.80;;;;;;;;5230202;28;8839;-65
2022/04/04 01:33:11;;;;;;;;;4.00;4.00;;;;;;;;5246661;28;9630;-64
2022/04/04 01:35:42;;;;;;;;;5.40;5.40;;;;;;;;5230194;28;8787;-64
2022/04/04 01:38:14;;;;;;;;;5.00;5.00;;;;;;;;5229913;28;8799;-65
2022/04/04 01:40:45;;;;;;;;;8.00;8.00;;;;;;;;5213549;28;8791;-69
2022/04/04 01:43:17;;;;;;;;;14.80;13.60;;;;;;;;5246995;28;8779;-69
2022/04/04 01:48:38;;;;;;;;;4.00;4.00;;;;;;;;5230365;28;8787;-69
2022/04/04 01:51:09;;;;;;;;;7.00;6.20;;;;;;;;5229750;28;8822;-69
2022/04/04 01:53:41;;;;;;;;;5.40;5.40;;;;;;;;5230572;28;8826;-68
2022/04/04 01:56:14;;;;;;;;;20.20;19.00;;;;;;;;5243287;28;8797;-69
2022/04/04 01:59:04;;;;;;;;;41.60;39.20;;;;;;;;5226013;28;8774;-64
2022/04/04 02:01:36;;;;;;;;;9.20;9.20;;;;;;;;5223962;28;8791;-68
2022/04/04 02:04:26;;;;;;;;;4.80;4.80;;;;;;;;5232417;28;8876;-68
2022/04/04 02:06:59;;;;;;;;;4.00;4.00;;;;;;;;5229892;28;8903;-68
2022/04/04 02:09:29;;;;;;;;;5.00;5.00;;;;;;;;5245831;28;8771;-68
2022/04/04 02:12:00;;;;;;;;;13.50;12.50;;;;;;;;5226214;28;8844;-68
2022/04/04 02:14:31;;;;;;;;;2.00;2.00;;;;;;;;5216461;28;11492;-68
2022/04/04 02:17:04;;;;;;;;;18.00;16.60;;;;;;;;5242396;28;9557;-68
2022/04/04 02:19:35;;;;;;;;;1.00;1.00;;;;;;;;5244050;28;8807;-68
2022/04/04 02:22:06;;;;;;;;;4.60;4.60;;;;;;;;5223332;28;8773;-68
2022/04/04 02:24:37;;;;;;;;;8.20;8.20;;;;;;;;5225396;28;8778;-68
2022/04/04 02:27:09;;;;;;;;;14.40;14.40;;;;;;;;5225261;28;9485;-68
2022/04/04 02:29:40;;;;;;;;;12.40;11.40;;;;;;;;5211511;28;8805;-66
2022/04/04 02:32:31;;;;;;;;;16.80;14.40;;;;;;;;5211367;28;8859;-66
2022/04/04 02:35:20;;;;;;;;;10.20;10.20;;;;;;;;5239553;28;8872;-66
2022/04/04 02:37:51;;;;;;;;;9.80;9.80;;;;;;;;5224312;28;8795;-66
2022/04/04 02:40:22;;;;;;;;;10.25;10.25;;;;;;;;5245143;28;9494;-65
2022/04/04 02:42:53;;;;;;;;;7.50;7.50;;;;;;;;5245415;28;8774;-65
2022/04/04 02:45:25;;;;;;;;;7.00;7.00;;;;;;;;5225835;28;11502;-66
2022/04/04 02:47:55;;;;;;;;;3.50;3.50;;;;;;;;5227853;28;8810;-67
2022/04/04 02:50:27;;;;;;;;;24.80;24.80;;;;;;;;5219310;28;8819;-67
2022/04/04 02:52:59;;;;;;;;;23.00;22.60;;;;;;;;5265076;28;8794;-68
2022/04/04 02:58:19;;;;;;;;;46.40;39.80;;;;;;;;5249612;28;8818;-68
2022/04/04 03:00:50;;;;;;;;;25.20;24.80;;;;;;;;5249456;28;8794;-67
2022/04/04 03:03:40;;;;;;;;;4.00;4.00;;;;;;;;5249433;28;8781;-67
2022/04/04 03:06:11;;;;;;;;;8.00;8.00;;;;;;;;5266185;28;8762;-67
2022/04/04 03:08:42;;;;;;;;;9.40;9.40;;;;;;;;5266852;28;8913;-67
2022/04/04 03:11:15;;;;;;;;;8.40;7.60;;;;;;;;5231853;28;8902;-67
2022/04/04 03:13:46;;;;;;;;;9.20;9.20;;;;;;;;5256039;28;8808;-68
2022/04/04 03:16:17;;;;;;;;;8.00;8.00;;;;;;;;5214382;28;8857;-66
2022/04/04 03:18:48;;;;;;;;;9.00;9.00;;;;;;;;5232779;28;8859;-67
2022/04/04 03:21:23;;;;;;;;;11.00;11.00;;;;;;;;5247618;28;8807;-67
2022/04/04 03:23:55;;;;;;;;;8.40;8.40;;;;;;;;5247292;28;8798;-67
2022/04/04 03:26:31;;;;;;;;;10.80;10.80;;;;;;;;5248446;28;8786;-66
2022/04/04 03:29:03;;;;;;;;;13.20;13.20;;;;;;;;5232837;28;9548;-66
2022/04/04 03:31:53;;;;;;;;;14.60;13.40;;;;;;;;5239093;28;8883;-67
2022/04/04 03:34:27;;;;;;;;;12.40;12.40;;;;;;;;5271618;28;8766;-65
2022/04/04 03:36:57;;;;;;;;;12.00;12.00;;;;;;;;5232307;28;8835;-65
2022/04/04 03:39:48;;;;;;;;;14.20;14.20;;;;;;;;5250422;28;8915;-65
2022/04/04 03:42:20;;;;;;;;;21.20;20.60;;;;;;;;5215750;28;9518;-65
2022/04/04 03:45:13;;;;;;;;;14.80;14.80;;;;;;;;5218217;28;8772;-65
2022/04/04 03:47:45;;;;;;;;;19.40;18.00;;;;;;;;5248135;28;8810;-66
2022/04/04 03:50:18;;;;;;;;;6.80;6.80;;;;;;;;5269671;28;8821;-66
2022/04/04 03:52:53;;;;;;;;;9.80;9.80;;;;;;;;5270979;28;8767;-66
2022/04/04 03:55:43;;;;;;;;;16.40;16.40;;;;;;;;5255500;28;8912;-65
2022/04/04 03:58:17;;;;;;;;;25.00;23.80;;;;;;;;5236532;28;8817;-66
2022/04/04 04:00:48;;;;;;;;;8.80;8.80;;;;;;;;5236887;28;8794;-66
2022/04/04 04:03:19;;;;;;;;;11.60;11.60;;;;;;;;5253226;28;8798;-66
2022/04/04 04:06:11;;;;;;;;;5.00;5.00;;;;;;;;5235343;28;8841;-65
2022/04/04 04:08:44;;;;;;;;;8.20;8.20;;;;;;;;5253513;28;9505;-65
2022/04/04 04:11:16;;;;;;;;;12.20;12.20;;;;;;;;5235978;28;9552;-66
2022/04/04 04:13:48;;;;;;;;;8.40;8.40;;;;;;;;5235644;28;8774;-67
2022/04/04 04:16:19;;;;;;;;;8.80;8.80;;;;;;;;5235903;28;8770;-66
2022/04/04 04:18:50;;;;;;;;;18.60;18.20;;;;;;;;5235928;28;8791;-66
2022/04/04 04:21:21;;;;;;;;;58.20;46.80;;;;;;;;5252553;28;8798;-67
2022/04/04 04:23:53;;;;;;;;;13.00;11.80;;;;;;;;5269559;28;8786;-65
2022/04/04 04:26:25;;;;;;;;;0.20;0.20;;;;;;;;5252429;28;9502;-66
2022/04/04 04:28:56;;;;;;;;;7.00;7.00;;;;;;;;5270415;28;9458;-66
2022/04/04 04:31:27;;;;;;;;;28.20;27.60;;;;;;;;5235396;28;8872;-67
2022/04/04 04:34:00;;;;;;;;;15.60;15.00;;;;;;;;5252026;28;8762;-67
2022/04/04 04:36:32;;;;;;;;;33.80;32.00;;;;;;;;5251985;28;8786;-67
2022/04/04 04:39:04;;;;;;;;;23.40;22.60;;;;;;;;5234205;28;8833;-69
2022/04/04 04:41:35;;;;;;;;;22.00;21.60;;;;;;;;5235246;28;8804;-67
2022/04/04 04:44:06;;;;;;;;;13.00;13.00;;;;;;;;5251938;28;8821;-67
2022/04/04 04:46:38;;;;;;;;;52.20;46.00;;;;;;;;5218919;28;8803;-67
2022/04/04 04:49:10;;;;;;;;;31.80;29.60;;;;;;;;5252201;28;8835;-67
2022/04/04 04:51:42;;;;;;;;;23.60;22.80;;;;;;;;5218821;28;9562;-67
2022/04/04 04:54:13;;;;;;;;;18.60;18.60;;;;;;;;5251998;28;8798;-68
2022/04/04 04:56:44;;;;;;;;;27.00;27.00;;;;;;;;5251690;28;8778;-65
2022/04/04 04:59:16;;;;;;;;;67.40;54.20;;;;;;;;5247496;28;8927;-68
2022/04/04 05:01:48;;;;;;;;;41.00;37.00;;;;;;;;5232630;28;8780;-68
2022/04/04 05:04:19;;;;;;;;;24.20;24.20;;;;;;;;5251516;28;9486;-67
2022/04/04 05:06:51;;;;;;;;;23.00;21.40;;;;;;;;5251497;28;8782;-65
2022/04/04 05:09:22;;;;;;;;;18.20;18.20;;;;;;;;5218503;28;9600;-66
2022/04/04 05:11:53;;;;;;;;;50.60;45.00;;;;;;;;5251561;28;8815;-65
2022/04/04 05:14:24;;;;;;;;;17.00;15.80;;;;;;;;5268710;28;8787;-66
2022/04/04 05:16:56;;;;;;;;;13.80;13.40;;;;;;;;5251375;28;8787;-65
2022/04/04 05:19:26;;;;;;;;;11.00;11.00;;;;;;;;5230171;28;8911;-65
2022/04/04 05:21:58;;;;;;;;;17.60;17.60;;;;;;;;5225099;28;8783;-66
2022/04/04 05:24:29;;;;;;;;;32.80;32.80;;;;;;;;5217925;28;8896;-66
2022/04/04 05:27:02;;;;;;;;;62.60;50.20;;;;;;;;5234689;28;8782;-66
2022/04/04 05:29:35;;;;;;;;;62.60;51.00;;;;;;;;5267562;28;8779;-65
2022/04/04 05:32:06;;;;;;;;;11.60;11.20;;;;;;;;5255972;28;8808;-63
2022/04/04 05:34:37;;;;;;;;;11.40;11.40;;;;;;;;5234830;28;8793;-63
2022/04/04 05:37:08;;;;;;;;;18.60;18.00;;;;;;;;5234376;28;8801;-63
2022/04/04 05:39:39;;;;;;;;;26.20;25.20;;;;;;;;5267604;28;8783;-63
2022/04/04 05:42:11;;;;;;;;;19.80;18.80;;;;;;;;5250784;28;8799;-63
2022/04/04 05:44:42;;;;;;;;;15.00;14.60;;;;;;;;5210820;28;8812;-64
2022/04/04 05:47:17;;;;;;;;;11.80;11.80;;;;;;;;5228448;28;9042;-63
2022/04/04 05:49:49;;;;;;;;;28.40;27.80;;;;;;;;5211846;28;8791;-63
2022/04/04 05:52:25;;;;;;;;;15.00;13.40;;;;;;;;5194497;28;8932;-63
2022/04/04 05:54:59;;;;;;;;;9.20;9.20;;;;;;;;5248721;28;8899;-63
2022/04/04 05:57:36;;;;;;;;;23.00;18.00;;;;;;;;5248888;28;8806;-70
2022/04/04 06:00:10;;;;;;;;;19.00;17.80;;;;;;;;5248363;28;9560;-67
2022/04/04 06:02:43;;;;;;;;;15.00;15.00;;;;;;;;5246570;28;8819;-67
2022/04/04 06:05:14;;;;;;;;;3.60;3.60;;;;;;;;5266983;28;8798;-68
2022/04/04 06:07:45;;;;;;;;;9.20;9.20;;;;;;;;5248574;28;8801;-68
2022/04/04 06:10:16;;;;;;;;;7.20;7.20;;;;;;;;5248417;28;8824;-68
2022/04/04 06:12:47;;;;;;;;;14.80;14.80;;;;;;;;5230354;28;8868;-66
2022/04/04 06:15:18;;;;;;;;;63.25;51.25;;;;;;;;5227759;28;8796;-67
2022/04/04 06:17:49;;;;;;;;;12.80;12.80;;;;;;;;5265711;28;8786;-67
2022/04/04 06:20:21;;;;;;;;;6.00;6.00;;;;;;;;5233021;28;8833;-67
2022/04/04 06:22:52;;;;;;;;;16.60;15.00;;;;;;;;5216921;28;8759;-67
2022/04/04 06:25:23;;;;;;;;;9.75;9.75;;;;;;;;5266872;28;8840;-68
2022/04/04 06:27:54;;;;;;;;;9.80;9.80;;;;;;;;5232970;28;11545;-67
2022/04/04 06:30:26;;;;;;;;;3.20;3.20;;;;;;;;5268120;28;8816;-65
2022/04/04 06:32:58;;;;;;;;;17.20;17.20;;;;;;;;5232740;28;8771;-67
2022/04/04 06:35:29;;;;;;;;;10.80;10.80;;;;;;;;5233348;28;8788;-67
2022/04/04 06:38:03;;;;;;;;;16.20;15.20;;;;;;;;5265868;28;8866;-66
2022/04/04 06:40:35;;;;;;;;;30.40;29.60;;;;;;;;5267312;28;8791;-66
2022/04/04 06:43:06;;;;;;;;;21.40;20.40;;;;;;;;5233078;28;9522;-66
2022/04/04 06:45:38;;;;;;;;;17.00;17.00;;;;;;;;5232333;28;9494;-66
2022/04/04 06:48:09;;;;;;;;;10.80;10.80;;;;;;;;5267418;28;8806;-66
2022/04/04 06:50:40;;;;;;;;;17.60;16.00;;;;;;;;5215102;28;9561;-67
2022/04/04 06:53:11;;;;;;;;;11.00;10.80;;;;;;;;5228289;28;8813;-66
2022/04/04 06:56:01;;;;;;;;;16.40;16.40;;;;;;;;5231356;28;9504;-66
2022/04/04 06:58:33;;;;;;;;;10.20;10.20;;;;;;;;5249377;28;8792;-68
2022/04/04 07:01:04;;;;;;;;;17.20;16.40;;;;;;;;5240809;28;8822;-67
2022/04/04 07:03:35;;;;;;;;;14.40;12.80;;;;;;;;5249052;28;8917;-67
2022/04/04 07:06:07;;;;;;;;;11.20;11.20;;;;;;;;5232311;28;8886;-66
2022/04/04 07:08:38;;;;;;;;;17.00;17.00;;;;;;;;5249156;28;8771;-67
2022/04/04 07:11:10;;;;;;;;;21.25;20.00;;;;;;;;5232473;28;8826;-68
2022/04/04 07:13:44;;;;;;;;;6.20;6.20;;;;;;;;5265950;28;8787;-67
2022/04/04 07:16:33;;;;;;;;;6.00;6.00;;;;;;;;5249316;28;8790;-67
2022/04/04 07:19:05;;;;;;;;;14.40;13.60;;;;;;;;5248979;28;8813;-67
2022/04/04 07:21:36;;;;;;;;;15.80;15.20;;;;;;;;5265681;28;8782;-68
2022/04/04 07:24:07;;;;;;;;;6.50;6.50;;;;;;;;5215432;28;8782;-67
2022/04/04 07:26:38;;;;;;;;;3.60;3.60;;;;;;;;5266966;28;8832;-67
2022/04/04 07:29:09;;;;;;;;;9.25;9.25;;;;;;;;5249203;28;8782;-67
2022/04/04 07:31:40;;;;;;;;;5.40;5.40;;;;;;;;5248981;28;8809;-67
2022/04/04 07:34:11;;;;;;;;;12.80;11.00;;;;;;;;5215631;28;8960;-68
2022/04/04 07:36:43;;;;;;;;;5.40;5.40;;;;;;;;5232626;28;9460;-67
2022/04/04 07:39:14;;;;;;;;;18.80;17.80;;;;;;;;5231914;28;8818;-67
2022/04/04 07:41:44;;;;;;;;;13.25;13.25;;;;;;;;5232084;28;8775;-67
2022/04/04 07:44:15;;;;;;;;;9.00;9.00;;;;;;;;5248918;28;11431;-67
2022/04/04 07:46:46;;;;;;;;;14.60;14.20;;;;;;;;5231914;28;11115;-67
2022/04/04 07:49:17;;;;;;;;;4.00;4.00;;;;;;;;5266984;28;8768;-67
2022/04/04 07:51:48;;;;;;;;;7.00;7.00;;;;;;;;5232351;28;11386;-68
2022/04/04 07:54:19;;;;;;;;;9.00;9.00;;;;;;;;5249021;28;8798;-67
2022/04/04 07:56:53;;;;;;;;;13.50;13.50;;;;;;;;5228254;28;12151;-67
2022/04/04 07:59:25;;;;;;;;;10.20;10.20;;;;;;;;5247120;28;9539;-67
2022/04/04 08:01:55;;;;;;;;;38.00;34.80;;;;;;;;5227624;28;8811;-66
2022/04/04 08:04:26;;;;;;;;;33.00;33.00;;;;;;;;5219689;28;8797;-66
2022/04/04 08:06:57;;;;;;;;;13.25;12.25;;;;;;;;5228403;28;8785;-67
2022/04/04 08:09:28;;;;;;;;;15.00;15.00;;;;;;;;5228247;28;11455;-67
2022/04/04 08:11:59;;;;;;;;;26.20;25.80;;;;;;;;5261823;28;8858;-66
2022/04/04 08:14:30;;;;;;;;;7.75;7.75;;;;;;;;5248704;28;9580;-66
2022/04/04 08:17:01;;;;;;;;;11.40;10.00;;;;;;;;5218511;28;8798;-63
2022/04/04 08:19:32;;;;;;;;;6.80;6.80;;;;;;;;5235904;28;8895;-69
2022/04/04 08:22:03;;;;;;;;;26.00;22.80;;;;;;;;5235702;28;8845;-67
2022/04/04 08:24:35;;;;;;;;;16.00;15.60;;;;;;;;5235692;28;8843;-67
2022/04/04 08:27:05;;;;;;;;;9.40;9.40;;;;;;;;5235613;28;8763;-67
2022/04/04 08:29:37;;;;;;;;;24.00;23.00;;;;;;;;5235599;28;8789;-67
2022/04/04 08:32:08;;;;;;;;;54.00;47.80;;;;;;;;5252316;28;8818;-67
2022/04/04 08:34:41;;;;;;;;;2.80;2.40;;;;;;;;5235529;28;8791;-68
2022/04/04 08:37:12;;;;;;;;;7.20;6.80;;;;;;;;5252022;28;8798;-68
2022/04/04 08:40:03;;;;;;;;;28.60;26.40;;;;;;;;5252267;28;8841;-68
2022/04/04 08:42:35;;;;;;;;;29.60;28.40;;;;;;;;5235738;28;8785;-67
2022/04/04 08:45:06;;;;;;;;;20.40;19.60;;;;;;;;5230743;28;8812;-68
2022/04/04 08:47:39;;;;;;;;;15.80;15.80;;;;;;;;5263717;28;9549;-68
2022/04/04 08:50:11;;;;;;;;;4.00;4.00;;;;;;;;5230874;28;8831;-68
2022/04/04 08:52:43;;;;;;;;;7.20;7.20;;;;;;;;5214628;28;8796;-68
2022/04/04 08:55:15;;;;;;;;;13.80;13.80;;;;;;;;5210402;28;8824;-68
2022/04/04 08:57:46;;;;;;;;;8.80;8.80;;;;;;;;5226655;28;8789;-68
2022/04/04 09:00:17;;;;;;;;;16.00;16.00;;;;;;;;5227158;28;8809;-68
2022/04/04 09:02:57;;;;;;;;;8.60;8.60;;;;;;;;5227069;28;8793;-68
2022/04/04 09:05:30;;;;;;;;;20.00;20.00;;;;;;;;5193958;28;8911;-68
2022/04/04 09:08:04;;;;;;;;;18.80;16.40;;;;;;;;5193819;28;8797;-68
2022/04/04 09:10:37;;;;;;;;;7.40;7.00;;;;;;;;5226514;28;9551;-68
2022/04/04 09:13:09;;;;;;;;;18.00;18.00;;;;;;;;5210060;28;8854;-68
2022/04/04 09:15:53;;;;;;;;;6.80;6.80;;;;;;;;5210192;28;8817;-68
2022/04/04 09:18:40;;;;;;;;;20.80;20.80;;;;;;;;5210011;28;8805;-68
2022/04/04 09:21:13;;;;;;;;;11.60;11.60;;;;;;;;5226909;28;9567;-68
2022/04/04 09:24:07;;;;;;;;;25.20;25.20;;;;;;;;5226730;28;8846;-67
2022/04/04 09:26:38;;;;;;;;;5.00;5.00;;;;;;;;5209697;28;9511;-68
2022/04/04 09:29:24;;;;;;;;;28.75;28.75;;;;;;;;5225708;28;8792;-68
2022/04/04 09:32:16;;;;;;;;;10.60;10.60;;;;;;;;5226738;28;8794;-68
2022/04/04 09:34:52;;;;;;;;;20.40;20.00;;;;;;;;5193117;28;8995;-68
2022/04/04 09:37:24;;;;;;;;;9.00;9.00;;;;;;;;5226677;28;8817;-68
2022/04/04 09:40:19;;;;;;;;;13.00;13.00;;;;;;;;5226841;28;8789;-69
2022/04/04 09:42:50;;;;;;;;;6.40;5.60;;;;;;;;5209539;28;8789;-69
2022/04/04 09:45:25;;;;;;;;;13.50;13.50;;;;;;;;5225801;28;8820;-69
2022/04/04 09:47:59;;;;;;;;;28.60;28.20;;;;;;;;5226185;28;11562;-68
2022/04/04 09:50:36;;;;;;;;;49.60;41.00;;;;;;;;5226002;28;9544;-68
2022/04/04 09:53:22;;;;;;;;;4.60;4.60;;;;;;;;5228264;28;8794;-68
2022/04/04 09:55:57;;;;;;;;;15.80;15.00;;;;;;;;5213252;28;9502;-68
2022/04/04 09:58:29;;;;;;;;;9.00;9.00;;;;;;;;5229555;28;8784;-68
2022/04/04 10:01:00;;;;;;;;;23.40;23.40;;;;;;;;5246344;28;8811;-68
2022/04/04 10:03:51;;;;;;;;;13.40;13.00;;;;;;;;5229797;28;8792;-68
2022/04/04 10:06:25;;;;;;;;;11.00;11.00;;;;;;;;5213059;28;9503;-68
2022/04/04 10:08:58;;;;;;;;;42.20;39.60;;;;;;;;5230003;28;8784;-68
2022/04/04 10:11:30;;;;;;;;;60.20;51.40;;;;;;;;5212777;28;8824;-68
2022/04/04 10:14:02;;;;;;;;;19.20;18.00;;;;;;;;5213315;28;8845;-68
2022/04/04 10:16:33;;;;;;;;;12.40;12.40;;;;;;;;5246187;28;8780;-67
2022/04/04 10:19:05;;;;;;;;;11.00;10.00;;;;;;;;5247039;28;8811;-68
2022/04/04 10:21:35;;;;;;;;;7.60;7.60;;;;;;;;5247207;28;8916;-68
2022/04/04 10:24:08;;;;;;;;;8.75;8.75;;;;;;;;5212751;28;8969;-68
2022/04/04 10:26:39;;;;;;;;;5.20;5.20;;;;;;;;5229073;28;11459;-68
2022/04/04 10:29:10;;;;;;;;;11.80;10.80;;;;;;;;5212505;28;8923;-67
2022/04/04 10:32:02;;;;;;;;;43.00;40.60;;;;;;;;5246792;28;8858;-69
2022/04/04 10:34:40;;;;;;;;;27.00;25.60;;;;;;;;5229093;28;8791;-68
2022/04/04 10:37:11;;;;;;;;;8.60;8.60;;;;;;;;5229196;28;8830;-68
2022/04/04 10:39:44;;;;;;;;;14.75;14.75;;;;;;;;5228663;28;8804;-68
2022/04/04 10:42:27;;;;;;;;;16.00;16.00;;;;;;;;5212555;28;9488;-69
2022/04/04 10:45:03;;;;;;;;;30.20;28.80;;;;;;;;5212596;28;9538;-67
2022/04/04 10:47:36;;;;;;;;;14.20;14.00;;;;;;;;5212483;28;9554;-68
2022/04/04 10:50:30;;;;;;;;;56.80;47.00;;;;;;;;5214656;28;8954;-67
2022/04/04 10:53:02;;;;;;;;;39.40;36.60;;;;;;;;5246237;28;8877;-68
2022/04/04 10:55:36;;;;;;;;;12.40;12.40;;;;;;;;5228976;28;8784;-67
2022/04/04 10:58:07;;;;;;;;;5.20;5.20;;;;;;;;5228732;28;8811;-67
2022/04/04 11:00:54;;;;;;;;;9.60;9.60;;;;;;;;5212071;28;8812;-67
2022/04/04 11:03:29;;;;;;;;;14.80;14.80;;;;;;;;5212573;28;9558;-68
2022/04/04 11:09:11;;;;;;;;;20.20;20.20;;;;;;;;5211897;28;8784;-68
2022/04/04 11:12:01;;;;;;;;;54.00;44.00;;;;;;;;5231758;28;8966;-68
2022/04/04 11:14:32;;;;;;;;;38.50;37.50;;;;;;;;5228400;28;9618;-68
2022/04/04 11:17:07;;;;;;;;;25.20;24.40;;;;;;;;5211831;28;9544;-68
2022/04/04 11:19:45;;;;;;;;;26.60;25.20;;;;;;;;5211699;28;8781;-68
2022/04/04 11:22:17;;;;;;;;;22.60;22.60;;;;;;;;5212315;28;8798;-68
2022/04/04 11:25:07;;;;;;;;;1.20;1.20;;;;;;;;5228447;28;8807;-67
2022/04/04 11:27:40;;;;;;;;;25.40;25.40;;;;;;;;5211896;28;8788;-68
2022/04/04 11:30:13;;;;;;;;;74.80;58.60;;;;;;;;5211835;28;8893;-68
2022/04/04 11:32:46;;;;;;;;;40.60;40.00;;;;;;;;5211996;28;8931;-67
2022/04/04 11:35:27;;;;;;;;;34.80;34.80;;;;;;;;5211649;28;8796;-67
2022/04/04 11:38:18;;;;;;;;;35.20;34.80;;;;;;;;5231337;28;8798;-67
2022/04/04 11:40:54;;;;;;;;;35.80;34.80;;;;;;;;5211463;28;9494;-67
2022/04/04 11:43:27;;;;;;;;;15.00;15.00;;;;;;;;5211811;28;8831;-67
2022/04/04 11:45:59;;;;;;;;;52.40;48.20;;;;;;;;5244923;28;8804;-67
2022/04/04 11:48:36;;;;;;;;;31.60;29.00;;;;;;;;5239067;28;8847;-67
2022/04/04 11:51:07;;;;;;;;;15.60;15.60;;;;;;;;5231983;28;8810;-68
2022/04/04 11:53:38;;;;;;;;;20.20;20.20;;;;;;;;5251368;28;8825;-68
2022/04/04 11:56:20;;;;;;;;;22.75;22.75;;;;;;;;5251361;28;8763;-68
2022/04/04 11:58:53;;;;;;;;;38.40;37.60;;;;;;;;5234106;28;8787;-68
2022/04/04 12:01:32;;;;;;;;;7.60;7.60;;;;;;;;5234227;28;8794;-67
2022/04/04 12:04:06;;;;;;;;;25.20;24.80;;;;;;;;5234438;28;9543;-69
2022/04/04 12:06:55;;;;;;;;;10.00;10.00;;;;;;;;5263725;28;8773;-67
2022/04/04 12:09:28;;;;;;;;;36.50;34.75;;;;;;;;5213366;28;8780;-67
2022/04/04 12:12:04;;;;;;;;;27.80;26.40;;;;;;;;5263597;28;11558;-67
2022/04/04 12:14:39;;;;;;;;;15.80;14.60;;;;;;;;5230103;28;8803;-67
2022/04/04 12:17:19;;;;;;;;;12.80;11.20;;;;;;;;5214463;28;8855;-65
2022/04/04 12:19:52;;;;;;;;;7.00;7.00;;;;;;;;5208861;28;8884;-66
2022/04/04 12:25:31;;;;;;;;;19.40;19.40;;;;;;;;5251650;28;8798;-66
2022/04/04 12:28:03;;;;;;;;;20.40;20.40;;;;;;;;5230892;28;8809;-67
2022/04/04 12:30:36;;;;;;;;;15.80;15.80;;;;;;;;5215390;28;8819;-66
2022/04/04 12:33:08;;;;;;;;;14.40;14.40;;;;;;;;5249385;28;8785;-66
2022/04/04 12:35:41;;;;;;;;;6.40;6.00;;;;;;;;5215000;28;8792;-66
2022/04/04 12:38:23;;;;;;;;;9.60;9.60;;;;;;;;5263832;28;8854;-66
2022/04/04 12:41:06;;;;;;;;;8.00;8.00;;;;;;;;5233114;28;8803;-66
2022/04/04 12:43:38;;;;;;;;;53.00;46.20;;;;;;;;5214962;28;8772;-67
2022/04/04 12:46:28;;;;;;;;;15.00;15.00;;;;;;;;5231441;28;8863;-66
2022/04/04 12:49:18;;;;;;;;;13.00;13.00;;;;;;;;5214945;28;8780;-66
2022/04/04 12:51:53;;;;;;;;;34.40;32.40;;;;;;;;5219754;28;8798;-66
2022/04/04 12:54:28;;;;;;;;;1.00;1.00;;;;;;;;5230910;28;8954;-66
2022/04/04 12:57:01;;;;;;;;;7.00;7.00;;;;;;;;5258902;28;8907;-67
2022/04/04 12:59:53;;;;;;;;;5.00;5.00;;;;;;;;5234997;28;8807;-66
2022/04/04 13:02:34;;;;;;;;;4.80;4.80;;;;;;;;5234388;28;8782;-66
2022/04/04 13:05:25;;;;;;;;;15.40;15.40;;;;;;;;5269643;28;8774;-66
2022/04/04 13:07:56;;;;;;;;;5.80;5.80;;;;;;;;5251401;28;8771;-66
2022/04/04 13:10:28;;;;;;;;;5.80;5.60;;;;;;;;5217633;28;8810;-66
2022/04/04 13:13:12;;;;;;;;;1.80;1.80;;;;;;;;5251614;28;8782;-66
2022/04/04 13:15:46;;;;;;;;;11.20;11.20;;;;;;;;5226876;28;8791;-66
2022/04/04 13:18:16;;;;;;;;;4.40;4.40;;;;;;;;5230747;28;9564;-65
2022/04/04 13:20:47;;;;;;;;;14.50;13.75;;;;;;;;5245453;28;8801;-66
2022/04/04 13:23:18;;;;;;;;;65.20;49.20;;;;;;;;5230919;28;8781;-66
2022/04/04 13:25:50;;;;;;;;;10.20;10.20;;;;;;;;5231237;28;8806;-66
2022/04/04 13:28:21;;;;;;;;;8.60;8.60;;;;;;;;5257141;28;10826;-66
2022/04/04 13:30:52;;;;;;;;;13.40;13.40;;;;;;;;5262032;28;8808;-67
2022/04/04 13:33:23;;;;;;;;;14.00;14.00;;;;;;;;5229408;28;8859;-69
2022/04/04 13:35:55;;;;;;;;;22.40;20.60;;;;;;;;5234340;28;9532;-66
2022/04/04 13:38:26;;;;;;;;;8.40;8.40;;;;;;;;5239368;28;8779;-65
2022/04/04 13:40:57;;;;;;;;;14.00;14.00;;;;;;;;5259261;28;8856;-66
2022/04/04 13:43:29;;;;;;;;;27.25;26.00;;;;;;;;5236463;28;8794;-67
2022/04/04 13:46:00;;;;;;;;;31.40;29.20;;;;;;;;5274186;28;9331;-67
2022/04/04 13:48:31;;;;;;;;;18.40;18.40;;;;;;;;5247462;28;8834;-65
2022/04/04 13:51:02;;;;;;;;;4.00;4.00;;;;;;;;5261766;28;8872;-68
2022/04/04 13:53:57;;;;;;;;;18.40;18.00;;;;;;;;5267156;28;8864;-68
2022/04/04 13:56:29;;;;;;;;;8.00;8.00;;;;;;;;5223782;28;8891;-67
2022/04/04 13:59:01;;;;;;;;;16.00;12.00;;;;;;;;5247586;28;8796;-67
2022/04/04 14:01:32;;;;;;;;;11.40;11.40;;;;;;;;5263565;28;8828;-68
2022/04/04 14:04:04;;;;;;;;;8.00;8.00;;;;;;;;5243119;28;8835;-66
2022/04/04 14:06:35;;;;;;;;;17.80;17.20;;;;;;;;5255499;28;11385;-66
2022/04/04 14:09:08;;;;;;;;;3.60;2.00;;;;;;;;5274416;28;8791;-66
2022/04/04 14:11:41;;;;;;;;;8.60;8.60;;;;;;;;5237516;28;8885;-66
2022/04/04 14:14:12;;;;;;;;;7.60;7.60;;;;;;;;5270196;28;8899;-67
2022/04/04 14:16:43;;;;;;;;;1.40;1.40;;;;;;;;5264294;28;8804;-66
2022/04/04 14:19:14;;;;;;;;;10.75;9.50;;;;;;;;5266992;28;8785;-66
2022/04/04 14:21:45;;;;;;;;;3.20;3.20;;;;;;;;5240115;28;8821;-66
2022/04/04 14:24:17;;;;;;;;;2.00;2.00;;;;;;;;5255897;28;8813;-66
2022/04/04 14:26:49;;;;;;;;;1.80;1.80;;;;;;;;5235062;28;8841;-66
2022/04/04 14:29:20;;;;;;;;;2.00;2.00;;;;;;;;5252149;28;8779;-68
2022/04/04 14:31:51;;;;;;;;;2.80;2.80;;;;;;;;5228507;28;9634;-66
2022/04/04 14:34:22;;;;;;;;;1.00;1.00;;;;;;;;5254269;28;8840;-66
2022/04/04 14:36:53;;;;;;;;;5.00;5.00;;;;;;;;5237675;28;8859;-67
2022/04/04 14:39:24;;;;;;;;;1.80;1.80;;;;;;;;5252924;28;8932;-66
2022/04/04 14:41:55;;;;;;;;;2.00;2.00;;;;;;;;5235948;28;8817;-66
2022/04/04 14:44:26;;;;;;;;;1.00;1.00;;;;;;;;5253066;28;8823;-67
2022/04/04 14:46:57;;;;;;;;;2.20;2.20;;;;;;;;5259634;28;8819;-67
2022/04/04 14:49:27;;;;;;;;;7.50;7.50;;;;;;;;5256712;28;8786;-67
2022/04/04 14:51:59;;;;;;;;;1.00;1.00;;;;;;;;5248953;28;8851;-66
2022/04/04 14:54:32;;;;;;;;;0.40;0.40;;;;;;;;5240161;28;8850;-66
2022/04/04 14:57:03;;;;;;;;;8.00;8.00;;;;;;;;5236663;28;8813;-65
2022/04/04 14:59:34;;;;;;;;;12.00;12.00;;;;;;;;5263147;28;8815;-66
2022/04/04 15:02:06;;;;;;;;;5.25;5.25;;;;;;;;5225722;28;8803;-67
2022/04/04 15:04:37;;;;;;;;;12.80;12.80;;;;;;;;5257074;28;9495;-66
2022/04/04 15:07:12;;;;;;;;;7.50;7.50;;;;;;;;5253749;28;8826;-67
2022/04/04 15:09:42;;;;;;;;;12.40;11.00;;;;;;;;5260721;28;9041;-66
2022/04/04 15:12:13;;;;;;;;;1.75;1.75;;;;;;;;5248556;28;8848;-67
2022/04/04 15:14:46;;;;;;;;;2.60;2.60;;;;;;;;5254014;28;8797;-67
2022/04/04 15:17:17;;;;;;;;;4.00;4.00;;;;;;;;5278708;28;8860;-70
2022/04/04 15:19:48;;;;;;;;;15.75;15.50;;;;;;;;5217265;28;8791;-66
2022/04/04 15:22:21;;;;;;;;;0.60;0.60;;;;;;;;5238899;28;8851;-66
2022/04/04 15:24:52;;;;;;;;;12.60;12.60;;;;;;;;5238423;28;8820;-66
2022/04/04 15:27:23;;;;;;;;;19.20;19.20;;;;;;;;5266511;28;8921;-67
2022/04/04 15:29:54;;;;;;;;;1.75;1.25;;;;;;;;5263994;28;9642;-66
2022/04/04 15:32:25;;;;;;;;;7.25;7.25;;;;;;;;5238291;28;11211;-67